Time;durP1;ratioP1;P1;durP2;ratioP2;P2;SDS_P1;SDS_P2;PMS_P1;PMS_P2;Temp;Humidity;BMP_temperature;BMP_pressure;BME280_temperature;BME280_humidity;BME280_pressure;Samples;Min_cycle;Max_cycle;Signal;HPM_P1;HPM_P2
2022/07/22 00:01:09;;;;;;;2.60;1.30;;;;;;;17.41;50.04;100994.65;107668;1244;73982;-76
2022/07/22 00:03:38;;;;;;;3.60;1.20;;;;;;;17.35;49.85;100992.23;107713;1243;72779;-78
2022/07/22 00:06:07;;;;;;;6.60;1.50;;;;;;;17.30;50.30;100994.50;107830;1244;70256;-79
2022/07/22 00:08:35;;;;;;;3.70;1.30;;;;;;;17.27;49.50;100992.72;107829;1244;73658;-77
2022/07/22 00:11:05;;;;;;;4.30;1.20;;;;;;;17.24;50.90;100993.31;107782;1244;59612;-80
2022/07/22 00:13:34;;;;;;;7.00;1.70;;;;;;;17.20;50.73;100994.78;107688;1244;62345;-79
2022/07/22 00:16:03;;;;;;;4.30;1.40;;;;;;;17.18;50.82;100994.05;107782;1243;74172;-78
2022/07/22 00:18:33;;;;;;;12.80;1.60;;;;;;;17.19;51.96;100994.30;107750;1244;70732;-77
2022/07/22 00:21:02;;;;;;;4.30;1.20;;;;;;;17.11;51.96;100994.96;107865;1244;70452;-78
2022/07/22 00:23:31;;;;;;;6.20;1.50;;;;;;;17.03;52.33;101000.64;107898;1244;74409;-76
2022/07/22 00:25:59;;;;;;;2.10;1.00;;;;;;;16.92;52.86;101005.17;107842;1244;61299;-77
2022/07/22 00:28:28;;;;;;;2.70;1.00;;;;;;;16.86;52.64;101002.10;107833;1244;58733;-76
2022/07/22 00:30:58;;;;;;;4.50;1.10;;;;;;;16.85;52.93;101000.38;107687;1244;71460;-75
2022/07/22 00:33:28;;;;;;;2.90;1.30;;;;;;;16.88;52.44;100998.73;107483;1245;61647;-76
2022/07/22 00:35:57;;;;;;;3.60;1.30;;;;;;;16.96;52.94;101002.13;107675;1244;70553;-76
2022/07/22 00:38:25;;;;;;;6.10;1.80;;;;;;;16.94;53.08;101000.91;107727;1244;72927;-80
2022/07/22 00:40:54;;;;;;;3.80;1.20;;;;;;;16.95;53.33;101002.11;107700;1244;60741;-80
2022/07/22 00:43:23;;;;;;;5.90;1.10;;;;;;;16.97;53.10;101002.73;107758;1244;59523;-78
2022/07/22 00:45:52;;;;;;;6.50;1.50;;;;;;;16.89;53.86;101003.52;107668;1245;71685;-78
2022/07/22 00:48:21;;;;;;;5.40;1.10;;;;;;;16.89;54.01;101001.55;107723;1244;72199;-79
2022/07/22 00:50:52;;;;;;;5.70;1.20;;;;;;;16.98;53.50;100999.54;107648;1245;69491;-80
2022/07/22 00:53:20;;;;;;;3.50;1.50;;;;;;;16.88;53.46;100996.05;107612;1244;73255;-79
2022/07/22 00:55:49;;;;;;;10.00;1.70;;;;;;;16.76;53.90;100994.54;107629;1244;60230;-75
2022/07/22 00:58:20;;;;;;;6.60;1.30;;;;;;;16.66;54.26;100995.09;107679;1244;60503;-75
2022/07/22 01:00:49;;;;;;;6.30;1.40;;;;;;;16.57;54.86;100999.52;107720;1244;72125;-76
2022/07/22 01:03:18;;;;;;;4.30;1.20;;;;;;;16.48;54.81;100999.74;107621;1244;69810;-76
2022/07/22 01:05:47;;;;;;;6.50;1.60;;;;;;;16.44;54.45;100996.79;107804;1244;68677;-75
2022/07/22 01:08:16;;;;;;;2.90;1.40;;;;;;;16.38;54.81;100999.30;107586;1244;74333;-75
2022/07/22 01:10:45;;;;;;;4.50;1.20;;;;;;;16.30;55.24;101001.31;107717;1244;60096;-76
2022/07/22 01:13:14;;;;;;;4.00;1.40;;;;;;;16.23;55.47;100999.85;107690;1244;60469;-76
2022/07/22 01:15:43;;;;;;;4.70;1.20;;;;;;;16.18;55.17;101002.18;107060;1247;849047;-78
2022/07/22 01:18:12;;;;;;;4.90;1.50;;;;;;;16.12;55.67;100995.73;107872;1244;70672;-75
2022/07/22 01:20:41;;;;;;;5.60;1.40;;;;;;;16.06;56.16;101001.15;107927;1244;70248;-76
2022/07/22 01:23:10;;;;;;;7.10;1.40;;;;;;;16.07;56.32;100995.84;108102;1244;73087;-76
2022/07/22 01:25:39;;;;;;;4.90;1.30;;;;;;;16.04;56.83;100988.90;108083;1243;59641;-72
2022/07/22 01:28:08;;;;;;;5.10;1.60;;;;;;;16.12;56.87;100989.02;107979;1244;60660;-76
2022/07/22 01:30:36;;;;;;;4.40;1.40;;;;;;;16.12;57.05;100986.34;107674;1244;75209;-77
2022/07/22 01:33:06;;;;;;;5.20;1.30;;;;;;;16.04;57.22;100983.77;107764;1245;71906;-78
2022/07/22 01:35:34;;;;;;;3.80;1.50;;;;;;;16.04;57.21;100983.11;107619;1244;70214;-79
2022/07/22 01:38:04;;;;;;;3.80;1.30;;;;;;;15.99;56.93;100983.86;107627;1244;75685;-77
2022/07/22 01:40:32;;;;;;;4.30;1.30;;;;;;;15.91;57.44;100985.50;107694;1244;60825;-75
2022/07/22 01:43:02;;;;;;;3.30;1.30;;;;;;;15.80;57.35;100992.80;107761;1244;61872;-75
2022/07/22 01:45:31;;;;;;;4.80;1.30;;;;;;;15.73;56.98;100992.71;107812;1244;75055;-76
2022/07/22 01:48:00;;;;;;;5.70;1.40;;;;;;;15.63;57.59;100996.94;107760;1244;71904;-74
2022/07/22 01:50:30;;;;;;;8.70;1.80;;;;;;;15.55;58.79;101000.08;107668;1244;70915;-75
2022/07/22 01:52:59;;;;;;;8.70;1.60;;;;;;;15.51;58.89;101001.16;107680;1244;74350;-76
2022/07/22 01:55:28;;;;;;;9.30;1.50;;;;;;;15.51;59.17;101001.69;107552;1244;60196;-76
2022/07/22 01:57:57;;;;;;;3.80;1.50;;;;;;;15.50;58.99;101006.17;107645;1244;59293;-73
2022/07/22 02:00:28;;;;;;;2.40;1.70;;;;;;;15.44;59.03;101005.98;107729;1244;74535;-74
2022/07/22 02:03:01;;;;;;;8.80;1.60;;;;;;;15.59;58.81;101009.44;107773;1243;72839;-75
2022/07/22 02:05:31;;;;;;;9.40;1.60;;;;;;;15.61;58.41;101006.74;107518;1244;70641;-75
2022/07/22 02:08:07;;;;;;;8.00;2.00;;;;;;;15.55;58.78;101001.87;107747;1244;74556;-77
2022/07/22 02:11:18;;;;;;;6.00;1.60;;;;;;;15.46;59.11;101002.70;107781;1244;60513;-75
2022/07/22 02:13:56;;;;;;;4.60;1.60;;;;;;;15.39;59.01;101002.02;107844;1244;58939;-77
2022/07/22 02:16:25;;;;;;;5.40;1.70;;;;;;;15.34;59.33;101003.51;107718;1244;73724;-76
2022/07/22 02:18:54;;;;;;;4.40;1.70;;;;;;;15.30;59.39;101002.83;107747;1244;72199;-76
2022/07/22 02:21:24;;;;;;;7.50;1.50;;;;;;;15.33;58.93;101001.81;107525;1244;69079;-74
2022/07/22 02:23:58;;;;;;;8.00;1.70;;;;;;;15.35;58.99;101003.98;107649;1243;71906;-76
2022/07/22 02:26:27;;;;;;;5.20;1.80;;;;;;;15.31;58.63;101003.09;107669;1244;61884;-77
2022/07/22 02:28:55;;;;;;;6.10;1.80;;;;;;;15.28;59.67;101003.41;107662;1244;61216;-76
2022/07/22 02:31:25;;;;;;;5.60;1.70;;;;;;;15.22;60.04;101002.48;107868;1244;73251;-75
2022/07/22 02:33:54;;;;;;;5.50;1.70;;;;;;;15.33;59.85;101007.98;107904;1244;69842;-77
2022/07/22 02:36:26;;;;;;;8.30;2.20;;;;;;;15.32;60.07;101004.75;107989;1244;70597;-75
2022/07/22 02:38:55;;;;;;;4.30;1.60;;;;;;;15.31;59.95;101004.19;107935;1244;74270;-77
2022/07/22 02:41:25;;;;;;;5.30;1.50;;;;;;;15.28;59.91;101008.06;107904;1244;59246;-75
2022/07/22 02:43:56;;;;;;;4.60;1.50;;;;;;;15.25;60.08;101009.61;107856;1246;58901;-82
2022/07/22 02:46:28;;;;;;;5.40;1.80;;;;;;;15.20;59.72;101013.89;107768;1246;72513;-82
2022/07/22 02:48:58;;;;;;;3.30;1.70;;;;;;;15.14;59.81;101012.44;107884;1244;72156;-80
2022/07/22 02:51:28;;;;;;;6.10;2.20;;;;;;;15.08;60.20;101011.73;108038;1244;70347;-80
2022/07/22 02:53:57;;;;;;;15.50;2.10;;;;;;;15.07;60.39;101011.70;107722;1247;73558;-77
2022/07/22 02:56:26;;;;;;;5.30;2.10;;;;;;;15.09;59.88;101015.04;107866;1243;59758;-78
2022/07/22 02:58:55;;;;;;;6.30;1.90;;;;;;;15.07;60.46;101022.55;107788;1244;59543;-75
2022/07/22 03:01:24;;;;;;;4.20;1.90;;;;;;;15.06;61.11;101025.65;107808;1244;74374;-84
2022/07/22 03:03:59;;;;;;;8.90;1.90;;;;;;;15.05;61.52;101026.93;107667;1244;72901;-77
2022/07/22 03:06:28;;;;;;;10.90;2.20;;;;;;;15.08;61.27;101023.53;107888;1244;70178;-74
2022/07/22 03:09:04;;;;;;;8.10;2.40;;;;;;;15.15;61.43;101024.90;107724;1244;72320;-76
2022/07/22 03:11:33;;;;;;;7.80;2.00;;;;;;;15.18;61.15;101023.88;107667;1246;59555;-75
2022/07/22 03:14:02;;;;;;;6.90;2.10;;;;;;;15.20;60.73;101024.91;107847;1244;58893;-75
2022/07/22 03:16:31;;;;;;;9.80;2.40;;;;;;;15.23;61.38;101025.44;107821;1244;73595;-80
2022/07/22 03:19:00;;;;;;;9.70;2.40;;;;;;;15.25;60.89;101023.09;107795;1244;71833;-76
2022/07/22 03:21:28;;;;;;;8.30;2.40;;;;;;;15.30;61.02;101018.98;107790;1245;70379;-76
2022/07/22 03:23:57;;;;;;;8.10;2.40;;;;;;;15.46;60.60;101022.35;107632;1244;71965;-76
2022/07/22 03:26:26;;;;;;;8.40;2.90;;;;;;;15.55;58.53;101024.88;107835;1244;59676;-76
2022/07/22 03:28:55;;;;;;;6.30;2.90;;;;;;;15.77;59.18;101023.49;107687;1244;60670;-77
2022/07/22 03:31:26;;;;;;;5.80;2.50;;;;;;;15.84;57.03;101018.04;107921;1244;73049;-79
2022/07/22 03:33:55;;;;;;;10.40;3.00;;;;;;;15.98;56.38;101017.74;107607;1244;72784;-83
2022/07/22 03:36:24;;;;;;;7.70;2.50;;;;;;;16.07;55.88;101012.33;107871;1244;70133;-77
2022/07/22 03:38:53;;;;;;;6.20;2.50;;;;;;;16.15;57.24;101016.55;107964;1244;72474;-76
2022/07/22 03:41:23;;;;;;;8.60;2.90;;;;;;;16.32;57.82;101014.27;107850;1244;59993;-81
2022/07/22 03:43:52;;;;;;;9.00;3.20;;;;;;;16.43;56.57;101017.14;107648;1244;61045;-78
2022/07/22 03:46:21;;;;;;;7.90;3.10;;;;;;;16.49;55.42;101021.13;107697;1244;73379;-83
2022/07/22 03:48:50;;;;;;;8.90;3.10;;;;;;;16.58;54.61;101016.21;107824;1246;70841;-83
2022/07/22 03:51:19;;;;;;;8.10;2.90;;;;;;;16.66;54.42;101014.98;107903;1246;68671;-75
2022/07/22 03:53:48;;;;;;;8.90;3.70;;;;;;;16.78;53.92;101008.65;107891;1244;73830;-78
2022/07/22 03:56:17;;;;;;;10.40;3.40;;;;;;;16.83;53.88;101012.77;107670;1244;61706;-75
2022/07/22 03:58:46;;;;;;;6.90;3.50;;;;;;;16.95;53.53;101015.84;107813;1244;59598;-80
2022/07/22 04:01:15;;;;;;;10.80;4.00;;;;;;;17.04;53.34;101015.63;107689;1246;73694;-82
2022/07/22 04:03:44;;;;;;;8.60;3.30;;;;;;;17.17;52.97;101017.94;107573;1244;71987;-77
2022/07/22 04:06:34;;;;;;;11.10;3.20;;;;;;;17.27;52.76;101022.09;107746;1244;68786;-75
2022/07/22 04:09:09;;;;;;;7.50;2.70;;;;;;;17.35;52.57;101016.21;107559;1244;72953;-77
2022/07/22 04:11:37;;;;;;;7.90;2.90;;;;;;;17.43;52.43;101012.77;107707;1244;59651;-77
2022/07/22 04:14:06;;;;;;;5.40;2.30;;;;;;;17.55;52.04;101010.08;107777;1245;57917;-77
2022/07/22 04:16:36;;;;;;;6.20;3.00;;;;;;;17.69;51.65;101009.17;107696;1244;63728;-76
2022/07/22 04:19:10;;;;;;;3.90;2.10;;;;;;;17.77;51.62;101010.45;107556;1247;61626;-85
2022/07/22 04:21:51;;;;;;;7.60;2.70;;;;;;;17.82;51.67;101007.30;107702;1245;70572;-86
2022/07/22 04:24:22;;;;;;;8.90;2.90;;;;;;;17.86;51.72;101003.17;107507;1247;73678;-75
2022/07/22 04:26:50;;;;;;;9.00;2.90;;;;;;;17.98;51.85;101003.71;107613;1247;61794;-76
2022/07/22 04:29:19;;;;;;;6.00;2.40;;;;;;;18.07;51.64;101003.58;107631;1247;59645;-74
2022/07/22 04:31:48;;;;;;;9.90;2.20;;;;;;;18.21;51.77;101008.80;107748;1247;73322;-82
2022/07/22 04:34:19;;;;;;;7.30;2.60;;;;;;;18.30;51.94;101009.34;107793;1244;72210;-76
2022/07/22 04:36:49;;;;;;;27.00;4.20;;;;;;;18.47;51.39;101009.94;107960;1244;72294;-80
2022/07/22 04:39:18;;;;;;;12.60;3.20;;;;;;;18.64;51.26;101009.11;107849;1245;73443;-85
2022/07/22 04:41:53;;;;;;;6.50;2.40;;;;;;;18.81;50.87;101010.72;107606;1247;60918;-83
2022/07/22 04:44:22;;;;;;;5.40;2.50;;;;;;;18.97;50.68;101012.42;107527;1245;61802;-77
2022/07/22 04:46:50;;;;;;;7.40;2.80;;;;;;;19.12;50.32;101007.40;107892;1244;74872;-74
2022/07/22 04:49:19;;;;;;;12.80;3.40;;;;;;;19.27;50.10;101007.52;107811;1244;72857;-78
2022/07/22 04:51:48;;;;;;;10.40;2.60;;;;;;;19.41;49.56;101005.38;107699;1247;60052;-80
2022/07/22 04:54:25;;;;;;;8.30;2.60;;;;;;;19.59;49.52;101008.14;107781;1245;63367;-77
2022/07/22 04:56:55;;;;;;;7.50;2.60;;;;;;;19.82;49.54;101014.88;107781;1247;59627;-78
2022/07/22 04:59:24;;;;;;;7.80;2.70;;;;;;;20.10;49.14;101020.90;107678;1247;59561;-76
2022/07/22 05:01:53;;;;;;;6.30;2.10;;;;;;;20.34;48.58;101012.79;107690;1247;63766;-74
2022/07/22 05:04:22;;;;;;;7.50;2.60;;;;;;;20.52;48.35;101013.63;107747;1246;61682;-72
2022/07/22 05:06:52;;;;;;;6.70;2.50;;;;;;;20.67;47.98;101012.69;107885;1244;59594;-80
2022/07/22 05:09:21;;;;;;;7.30;2.80;;;;;;;20.84;47.96;101015.40;107946;1247;73934;-80
2022/07/22 05:11:51;;;;;;;5.80;2.30;;;;;;;21.00;47.44;101016.84;107554;1247;61782;-73
2022/07/22 05:14:22;;;;;;;6.10;2.20;;;;;;;21.10;47.15;101013.85;107975;1247;59634;-76
2022/07/22 05:16:51;;;;;;;6.10;2.40;;;;;;;21.19;47.04;101012.75;107805;1246;64760;-78
2022/07/22 05:19:20;;;;;;;7.90;2.60;;;;;;;21.29;46.91;101016.02;107614;1244;62132;-75
2022/07/22 05:21:51;;;;;;;6.00;2.70;;;;;;;21.35;46.80;101008.63;107928;1246;60049;-77
2022/07/22 05:24:20;;;;;;;7.60;3.00;;;;;;;21.42;46.66;101001.68;107966;1244;62500;-75
2022/07/22 05:26:49;;;;;;;6.10;2.40;;;;;;;21.47;46.65;100997.87;107926;1247;59582;-79
2022/07/22 05:29:18;;;;;;;7.80;2.60;;;;;;;21.56;46.65;101003.25;107793;1244;61319;-81
2022/07/22 05:31:47;;;;;;;6.30;2.60;;;;;;;21.63;46.62;101004.21;108016;1244;65515;-75
2022/07/22 05:34:16;;;;;;;10.00;2.80;;;;;;;21.71;46.32;101001.91;107924;1244;61955;-77
2022/07/22 05:36:52;;;;;;;5.10;2.30;;;;;;;21.77;46.39;100998.14;107936;1244;70384;-75
2022/07/22 05:39:21;;;;;;;7.10;2.80;;;;;;;21.86;46.23;101000.10;107914;1244;62938;-78
2022/07/22 05:41:50;;;;;;;38.40;28.60;;;;;;;21.97;46.12;100995.90;107767;1247;57984;-78
2022/07/22 05:44:24;;;;;;;27.00;18.60;;;;;;;22.09;45.92;100997.28;107782;1247;59459;-77
2022/07/22 05:46:53;;;;;;;17.90;9.90;;;;;;;22.22;45.75;100997.02;107647;1247;72872;-77
2022/07/22 05:49:24;;;;;;;16.80;5.10;;;;;;;22.31;45.71;100991.79;107842;1247;60882;-76
2022/07/22 05:52:00;;;;;;;10.20;2.80;;;;;;;22.41;45.65;100992.81;107880;1247;60399;-77
2022/07/22 05:54:29;;;;;;;6.30;3.20;;;;;;;22.50;45.33;100991.80;107942;1244;73066;-76
2022/07/22 05:56:57;;;;;;;6.80;2.60;;;;;;;22.53;45.31;100987.52;107515;1246;62817;-76
2022/07/22 05:59:26;;;;;;;8.00;3.00;;;;;;;22.59;45.24;100982.84;107720;1247;59784;-78
2022/07/22 06:01:56;;;;;;;7.40;3.00;;;;;;;22.70;45.41;100984.73;107925;1244;73530;-75
2022/07/22 06:04:37;;;;;;;9.90;3.20;;;;;;;22.83;44.85;100980.02;107737;1244;72685;-77
2022/07/22 06:07:06;;;;;;;8.30;2.70;;;;;;;22.92;44.82;100979.98;107850;1244;60327;-77
2022/07/22 06:09:37;;;;;;;9.40;3.40;;;;;;;23.03;44.64;100974.98;107650;1247;63099;-77
2022/07/22 06:12:07;;;;;;;6.50;3.50;;;;;;;23.14;44.36;100973.73;107672;1246;61469;-79
2022/07/22 06:14:37;;;;;;;17.80;11.30;;;;;;;23.27;44.15;100972.86;107814;1246;60973;-77
2022/07/22 06:17:07;;;;;;;28.60;23.90;;;;;;;23.37;44.26;100966.94;107517;1244;75575;-74
2022/07/22 06:19:36;;;;;;;28.70;22.60;;;;;;;23.47;44.00;100974.14;107896;1244;71948;-78
2022/07/22 06:22:05;;;;;;;14.70;8.70;;;;;;;23.61;43.90;100973.39;107913;1244;71078;-78
2022/07/22 06:24:39;;;;;;;11.50;4.30;;;;;;;23.73;43.74;100972.15;107798;1246;63142;-74
2022/07/22 06:27:10;;;;;;;6.80;3.20;;;;;;;23.88;43.48;100970.55;107665;1244;59347;-77
2022/07/22 06:29:40;;;;;;;6.20;3.60;;;;;;;23.99;43.01;100970.73;107684;1247;60953;-77
2022/07/22 06:32:10;;;;;;;8.60;4.30;;;;;;;24.14;43.01;100970.89;107856;1247;75070;-75
2022/07/22 06:34:41;;;;;;;6.30;5.20;;;;;;;24.27;42.64;100971.86;107924;1247;61970;-72
2022/07/22 06:37:10;;;;;;;9.30;4.60;;;;;;;24.38;42.38;100971.52;107747;1247;59447;-77
2022/07/22 06:39:40;;;;;;;10.30;8.30;;;;;;;24.48;42.20;100963.90;107690;1244;73574;-76
2022/07/22 06:42:22;;;;;;;8.40;5.60;;;;;;;24.54;41.94;100972.52;107813;1247;59672;-75
2022/07/22 06:45:52;;;;;;;6.80;3.60;;;;;;;24.60;41.67;100964.14;107193;1251;62946;-76
2022/07/22 06:48:28;;;;;;;6.80;2.60;;;;;;;24.65;41.47;100964.78;107177;1250;65297;-76
2022/07/22 06:50:59;;;;;;;6.50;2.80;;;;;;;24.77;41.36;100964.61;107296;1246;72601;-76
2022/07/22 06:53:29;;;;;;;7.00;2.70;;;;;;;24.88;41.48;100961.89;107815;1247;60523;-76
2022/07/22 06:55:59;;;;;;;7.80;2.80;;;;;;;25.03;41.02;100968.30;107589;1247;74545;-76
2022/07/22 06:58:35;;;;;;;8.00;2.70;;;;;;;25.11;40.80;100969.47;107853;1244;58434;-78
2022/07/22 07:01:12;;;;;;;4.90;2.60;;;;;;;25.22;40.30;100968.52;107873;1246;59446;-79
2022/07/22 07:03:55;;;;;;;8.00;2.90;;;;;;;25.27;40.01;100971.66;107962;1244;72386;-78
2022/07/22 07:06:25;;;;;;;5.60;2.70;;;;;;;25.29;40.05;100971.92;107823;1247;61235;-81
2022/07/22 07:09:51;;;;;;;5.50;2.70;;;;;;;25.29;40.02;100969.73;106926;1252;68706;-77
2022/07/22 07:12:26;;;;;;;6.90;2.40;;;;;;;25.31;40.10;100972.50;107970;1247;63057;-82
2022/07/22 07:15:07;;;;;;;6.80;2.70;;;;;;;25.41;40.02;100971.17;107973;1244;59530;-80
2022/07/22 07:18:00;;;;;;;9.00;2.90;;;;;;;25.57;39.90;100971.28;107489;1246;59689;-77
2022/07/22 07:20:29;;;;;;;7.00;2.90;;;;;;;25.66;39.37;100978.91;107734;1247;63010;-81
2022/07/22 07:23:02;;;;;;;9.30;2.50;;;;;;;25.73;39.27;100970.86;107760;1247;62839;-80
2022/07/22 07:25:34;;;;;;;7.70;2.70;;;;;;;25.86;38.87;100969.34;107846;1244;70612;-81
2022/07/22 07:28:03;;;;;;;7.00;3.00;;;;;;;25.85;38.98;100967.70;107641;1244;73362;-79
2022/07/22 07:30:57;;;;;;;7.30;3.10;;;;;;;26.01;39.00;100971.70;107924;1246;61844;-82
2022/07/22 07:33:27;;;;;;;7.00;2.60;;;;;;;26.12;39.03;100974.73;108016;1247;62210;-81
2022/07/22 07:35:56;;;;;;;6.50;2.60;;;;;;;26.30;38.56;100975.89;107761;1244;75726;-80
2022/07/22 07:38:46;;;;;;;6.80;2.50;;;;;;;26.45;38.09;100976.99;108284;1244;72743;-81
2022/07/22 07:41:18;;;;;;;7.40;2.80;;;;;;;26.57;38.10;100977.23;108927;1244;70316;-81
2022/07/22 07:43:51;;;;;;;4.90;2.40;;;;;;;26.67;37.87;100982.10;109089;1244;73540;-77
2022/07/22 07:46:21;;;;;;;5.50;2.60;;;;;;;26.70;37.85;100974.98;108013;1247;59610;-80
2022/07/22 07:48:53;;;;;;;6.70;3.10;;;;;;;26.78;37.89;100975.89;107844;1247;57886;-82
2022/07/22 07:51:23;;;;;;;4.30;2.40;;;;;;;26.81;37.65;100980.30;107819;1246;64258;-78
2022/07/22 07:53:53;;;;;;;5.00;2.30;;;;;;;26.86;37.15;100978.41;107725;1247;62356;-78
2022/07/22 07:56:22;;;;;;;4.60;2.60;;;;;;;26.92;37.22;100971.19;107472;1247;71580;-78
2022/07/22 07:58:52;;;;;;;4.30;2.50;;;;;;;27.09;37.13;100969.77;107776;1246;64750;-82
2022/07/22 08:01:44;;;;;;;9.50;3.10;;;;;;;27.21;36.85;100973.27;107763;1246;60148;-77
2022/07/22 08:04:27;;;;;;;5.40;2.50;;;;;;;27.18;36.63;100972.96;107738;1246;58379;-79
2022/07/22 08:07:08;;;;;;;7.60;2.90;;;;;;;27.26;36.57;100981.17;107665;1247;63011;-82
2022/07/22 08:09:42;;;;;;;6.10;2.60;;;;;;;27.29;36.66;100971.58;107540;1247;71551;-80
2022/07/22 08:13:03;;;;;;;5.00;2.80;;;;;;;27.41;36.51;100969.53;107756;1246;72159;-78
2022/07/22 08:15:46;;;;;;;8.70;2.60;;;;;;;27.47;35.41;100968.97;107782;1247;63666;-77
2022/07/22 08:18:21;;;;;;;6.00;2.80;;;;;;;27.41;35.66;100975.89;107693;1247;59079;-79
2022/07/22 08:20:50;;;;;;;4.90;2.70;;;;;;;27.38;35.89;100976.40;107796;1247;58288;-82
2022/07/22 08:23:24;;;;;;;6.80;2.70;;;;;;;27.43;35.64;100971.09;107875;1247;74430;-80
2022/07/22 08:25:54;;;;;;;8.90;2.30;;;;;;;27.53;35.55;100964.51;107717;1247;61903;-78
2022/07/22 08:28:23;;;;;;;6.70;2.60;;;;;;;27.68;35.01;100970.41;107857;1246;67833;-78
2022/07/22 08:30:53;;;;;;;4.60;2.40;;;;;;;27.83;34.98;100971.84;107784;1247;62572;-76
2022/07/22 08:33:22;;;;;;;4.30;2.80;;;;;;;27.88;34.97;100963.08;107646;1247;59517;-78
2022/07/22 08:35:51;;;;;;;4.50;2.80;;;;;;;28.06;34.96;100963.65;107912;1244;59292;-76
2022/07/22 08:38:20;;;;;;;4.20;2.40;;;;;;;28.31;33.37;100967.26;107524;1247;74488;-77
2022/07/22 08:40:53;;;;;;;3.30;2.30;;;;;;;28.31;33.24;100964.42;107699;1247;72800;-81
2022/07/22 08:43:35;;;;;;;5.00;2.50;;;;;;;28.26;33.59;100964.04;107528;1247;61183;-80
2022/07/22 08:46:04;;;;;;;4.30;2.50;;;;;;;28.12;33.35;100959.58;107612;1246;73623;-78
2022/07/22 08:48:52;;;;;;;5.00;2.80;;;;;;;28.26;32.61;100967.34;107639;1247;61724;-78
2022/07/22 08:51:29;;;;;;;4.80;2.50;;;;;;;28.31;32.88;100962.84;107576;1246;61379;-78
2022/07/22 08:54:14;;;;;;;5.30;2.40;;;;;;;28.39;32.91;100959.89;107783;1244;74880;-75
2022/07/22 08:56:48;;;;;;;4.30;2.80;;;;;;;28.43;32.15;100954.52;107795;1244;71929;-75
2022/07/22 08:59:18;;;;;;;4.10;2.40;;;;;;;28.39;31.85;100959.80;107974;1247;60508;-75
2022/07/22 09:02:11;;;;;;;3.50;2.70;;;;;;;28.34;31.40;100964.80;107814;1245;73902;-78
2022/07/22 09:04:53;;;;;;;4.90;2.70;;;;;;;28.54;31.50;100960.02;107753;1244;62246;-76
2022/07/22 09:07:35;;;;;;;5.20;2.40;;;;;;;28.57;31.41;100957.67;107990;1244;57806;-77
2022/07/22 09:10:14;;;;;;;8.30;3.40;;;;;;;28.52;31.10;100953.84;107914;1247;63843;-78
2022/07/22 09:13:10;;;;;;;5.80;2.90;;;;;;;28.58;31.49;100954.77;107732;1244;60913;-79
2022/07/22 09:16:47;;;;;;;4.20;2.60;;;;;;;28.65;31.24;100959.32;107800;1244;69704;-79
2022/07/22 09:20:18;;;;;;;5.90;3.00;;;;;;;28.74;30.99;100953.34;107717;1244;74263;-74
2022/07/22 09:23:42;;;;;;;5.20;2.70;;;;;;;28.66;31.40;100955.54;107655;1244;59669;-76
2022/07/22 09:26:39;;;;;;;3.10;2.50;;;;;;;28.75;31.48;100954.17;107806;1246;61346;-76
2022/07/22 09:29:27;;;;;;;4.70;3.10;;;;;;;28.90;30.07;100948.69;108119;1244;64312;-77
2022/07/22 09:32:19;;;;;;;4.60;2.70;;;;;;;29.04;30.17;100944.61;107736;1245;60840;-79
2022/07/22 09:35:04;;;;;;;8.00;3.00;;;;;;;29.06;30.68;100953.97;107963;1244;60214;-77
2022/07/22 09:37:57;;;;;;;4.50;2.50;;;;;;;29.18;30.66;100956.01;108070;1244;73919;-76
2022/07/22 09:40:29;;;;;;;5.00;2.80;;;;;;;29.12;30.64;100958.86;107762;1247;59097;-76
2022/07/22 09:43:01;;;;;;;;;;;;;;;29.09;30.60;100948.39;107711;1247;61324;-79
2022/07/22 09:45:31;;;;;;;6.00;2.70;;;;;;;29.15;30.69;100960.77;107834;1247;64138;-80
2022/07/22 09:48:01;;;;;;;9.00;2.80;;;;;;;29.33;30.32;100953.77;108003;1245;72140;-76
2022/07/22 09:51:03;;;;;;;4.10;3.00;;;;;;;29.56;30.22;100959.02;107867;1245;60486;-76
2022/07/22 09:53:52;;;;;;;4.90;2.80;;;;;;;29.61;29.84;100961.63;107712;1245;73492;-76
2022/07/22 09:56:29;;;;;;;5.40;3.00;;;;;;;29.67;29.63;100954.86;108088;1244;59631;-78
2022/07/22 09:59:00;;;;;;;5.20;2.90;;;;;;;29.70;29.51;100951.45;107581;1246;57975;-79
2022/07/22 10:01:37;;;;;;;3.60;2.60;;;;;;;29.67;29.15;100942.45;107999;1245;73665;-79
2022/07/22 10:04:07;;;;;;;5.40;2.90;;;;;;;29.68;29.08;100942.15;107786;1245;62234;-76
2022/07/22 10:06:38;;;;;;;7.70;2.90;;;;;;;29.77;28.89;100950.29;107848;1244;69985;-78
2022/07/22 10:09:11;;;;;;;5.00;3.10;;;;;;;29.75;28.43;100953.16;107964;1246;62928;-75
2022/07/22 10:11:45;;;;;;;4.60;3.10;;;;;;;29.81;28.39;100949.09;108075;1244;59040;-82
2022/07/22 10:14:18;;;;;;;6.70;3.10;;;;;;;29.86;28.21;100954.16;108126;1244;60297;-78
2022/07/22 10:16:53;;;;;;;5.20;3.10;;;;;;;29.83;28.36;100948.29;107936;1244;75449;-73
2022/07/22 10:19:22;;;;;;;4.70;3.10;;;;;;;29.97;27.90;100946.47;107935;1244;71480;-77
2022/07/22 10:21:51;;;;;;;6.60;3.70;;;;;;;30.05;27.17;100949.14;107821;1245;61300;-78
2022/07/22 10:24:24;;;;;;;4.70;3.20;;;;;;;30.12;27.22;100945.81;107977;1244;62296;-78
2022/07/22 10:26:58;;;;;;;4.40;3.40;;;;;;;30.19;27.27;100945.21;107893;1244;60527;-78
2022/07/22 10:29:47;;;;;;;3.90;3.10;;;;;;;30.34;27.32;100948.20;107906;1247;59272;-77
2022/07/22 10:32:15;;;;;;;4.40;3.10;;;;;;;30.50;26.82;100946.61;107783;1244;74481;-78
2022/07/22 10:35:08;;;;;;;4.90;3.00;;;;;;;30.58;26.50;100950.33;107880;1245;61576;-75
2022/07/22 10:37:49;;;;;;;4.20;3.20;;;;;;;31.00;26.42;100940.80;108046;1244;70399;-79
2022/07/22 10:41:00;;;;;;;4.10;2.80;;;;;;;31.46;26.04;100940.52;107871;1245;73255;-78
2022/07/22 10:43:48;;;;;;;5.30;3.10;;;;;;;31.44;25.66;100936.58;107835;1244;61019;-77
2022/07/22 10:46:18;;;;;;;5.90;3.40;;;;;;;31.76;25.70;100934.62;107825;1244;59109;-80
2022/07/22 10:48:48;;;;;;;4.20;3.20;;;;;;;32.14;25.17;100945.58;107962;1245;74477;-75
2022/07/22 10:51:21;;;;;;;5.30;3.20;;;;;;;32.22;24.94;100935.99;107547;1244;73326;-77
2022/07/22 10:54:02;;;;;;;4.70;2.80;;;;;;;32.39;25.00;100933.08;107900;1247;60841;-73
2022/07/22 10:56:38;;;;;;;4.60;3.30;;;;;;;32.54;24.56;100936.10;107934;1244;62656;-75
2022/07/22 10:59:16;;;;;;;4.00;2.90;;;;;;;32.61;24.02;100926.52;107901;1245;61572;-78
2022/07/22 11:01:48;;;;;;;6.20;3.30;;;;;;;32.56;24.32;100923.69;107895;1245;58153;-77
2022/07/22 11:04:24;;;;;;;6.70;3.00;;;;;;;33.06;23.79;100925.48;107924;1245;63804;-76
2022/07/22 11:06:55;;;;;;;4.70;3.00;;;;;;;33.02;23.95;100934.48;108033;1243;61669;-75
2022/07/22 11:09:34;;;;;;;6.80;3.40;;;;;;;33.10;24.10;100937.80;108111;1244;59455;-76
2022/07/22 11:12:12;;;;;;;5.60;2.90;;;;;;;32.66;24.70;100932.79;107772;1247;63238;-75
2022/07/22 11:14:41;;;;;;;4.60;3.30;;;;;;;32.68;25.11;100935.14;107987;1244;60501;-78
2022/07/22 11:17:15;;;;;;;5.10;3.30;;;;;;;33.11;24.19;100938.10;107918;1244;61913;-80
2022/07/22 11:19:44;;;;;;;4.70;3.00;;;;;;;33.21;23.88;100929.85;107744;1244;66072;-76
2022/07/22 11:22:15;;;;;;;4.70;3.30;;;;;;;33.38;23.34;100920.66;107943;1244;72605;-74
2022/07/22 11:24:49;;;;;;;8.30;3.10;;;;;;;33.30;23.95;100928.27;107992;1244;70527;-75
2022/07/22 11:27:21;;;;;;;5.80;2.90;;;;;;;33.25;23.86;100926.70;107963;1244;73730;-74
2022/07/22 11:29:53;;;;;;;4.00;3.30;;;;;;;33.53;23.36;100920.80;107989;1244;58429;-77
2022/07/22 11:32:27;;;;;;;6.40;3.30;;;;;;;33.67;23.55;100913.34;107856;1244;59505;-81
2022/07/22 11:34:59;;;;;;;7.00;3.30;;;;;;;33.91;23.00;100916.66;107764;1246;63868;-77
2022/07/22 11:37:28;;;;;;;5.00;3.20;;;;;;;33.58;23.53;100918.11;107949;1244;71871;-74
2022/07/22 11:40:06;;;;;;;4.80;2.80;;;;;;;34.39;22.74;100917.27;107721;1247;59586;-75
2022/07/22 11:42:36;;;;;;;3.50;2.80;;;;;;;34.57;22.38;100919.59;107815;1244;72967;-76
2022/07/22 11:45:06;;;;;;;6.10;3.10;;;;;;;34.69;21.94;100912.21;107815;1245;61209;-76
2022/07/22 11:47:35;;;;;;;4.30;3.30;;;;;;;34.72;21.40;100919.38;107927;1245;61714;-79